Time;durP1;ratioP1;P1;durP2;ratioP2;P2;SDS_P1;SDS_P2;PMS_P1;PMS_P2;Temp;Humidity;BMP_temperature;BMP_pressure;BME280_temperature;BME280_humidity;BME280_pressure;Samples;Min_cycle;Max_cycle;Signal;HPM_P1;HPM_P2
2023/12/28 00:01:28;;;;;;;;;;;10.20;99.90;;;;;;6756880;87;20118;-77
2023/12/28 00:11:29;;;;;;;;;;;10.20;99.90;;;;;;6766219;87;20182;-77
2023/12/28 00:21:30;;;;;;;;;;;10.10;99.90;;;;;;6752580;87;20515;-78
2023/12/28 00:31:30;;;;;;;;;;;10.10;99.90;;;;;;6743137;88;20627;-78
2023/12/28 00:41:31;;;;;;;;;;;10.10;99.90;;;;;;6737082;88;20516;-78
2023/12/28 00:51:31;;;;;;;;;;;9.90;99.90;;;;;;6735278;88;20058;-78
2023/12/28 01:01:32;;;;;;;;;;;9.70;99.90;;;;;;6741129;88;20135;-78
2023/12/28 01:11:32;;;;;;;;;;;9.60;99.90;;;;;;6744530;88;20188;-78
2023/12/28 01:21:32;;;;;;;;;;;9.70;99.90;;;;;;6742168;87;20062;-78
2023/12/28 01:31:33;;;;;;;;;;;9.60;99.90;;;;;;6761430;88;20104;-78
2023/12/28 01:41:34;;;;;;;;;;;9.50;99.90;;;;;;6758202;88;20317;-78
2023/12/28 01:51:34;;;;;;;;;;;9.40;99.90;;;;;;6759375;88;20194;-78
2023/12/28 02:01:35;;;;;;;;;;;9.40;99.90;;;;;;6750264;88;20952;-77
2023/12/28 02:11:36;;;;;;;;;;;9.30;99.90;;;;;;6754015;87;20075;-77
2023/12/28 02:21:36;;;;;;;;;;;9.20;99.90;;;;;;6748891;87;20070;-77
2023/12/28 02:31:45;;;;;;;;;;;9.30;99.90;;;;;;6749918;88;20210;-77
2023/12/28 02:41:46;;;;;;;;;;;9.30;99.90;;;;;;6749163;87;20079;-77
2023/12/28 02:51:47;;;;;;;;;;;9.20;99.90;;;;;;6754722;88;20076;-78
2023/12/28 03:01:47;;;;;;;;;;;9.20;99.90;;;;;;6759617;87;20074;-78
2023/12/28 03:11:48;;;;;;;;;;;9.10;99.90;;;;;;6756161;88;20487;-77
2023/12/28 03:21:48;;;;;;;;;;;9.00;99.90;;;;;;6760925;87;20152;-77
2023/12/28 03:31:49;;;;;;;;;;;9.00;99.90;;;;;;6762132;87;20095;-77
2023/12/28 03:41:50;;;;;;;;;;;9.00;99.90;;;;;;6757585;87;20070;-78
2023/12/28 03:51:50;;;;;;;;;;;9.00;99.90;;;;;;6757844;87;20538;-77
2023/12/28 04:01:51;;;;;;;;;;;9.00;99.90;;;;;;6753719;87;20507;-77
2023/12/28 04:11:51;;;;;;;;;;;9.10;99.90;;;;;;6753022;87;20074;-77
2023/12/28 04:21:52;;;;;;;;;;;8.90;99.90;;;;;;6750943;87;20069;-77
2023/12/28 04:31:52;;;;;;;;;;;9.00;99.90;;;;;;6755342;88;20158;-77
2023/12/28 04:41:53;;;;;;;;;;;8.90;99.90;;;;;;6750979;87;20079;-76
2023/12/28 04:51:55;;;;;;;;;;;8.90;99.90;;;;;;6758739;88;20169;-77
2023/12/28 05:01:56;;;;;;;;;;;8.90;99.90;;;;;;6744541;88;20604;-77
2023/12/28 05:22:58;;;;;;;;;;;8.90;99.90;;;;;;6738086;88;20067;-80
2023/12/28 05:32:58;;;;;;;;;;;8.90;99.90;;;;;;6724488;88;20059;-81
2023/12/28 05:42:59;;;;;;;;;;;9.00;99.90;;;;;;6729390;88;20058;-80
2023/12/28 05:52:59;;;;;;;;;;;9.20;99.90;;;;;;6727829;88;20765;-82
2023/12/28 06:03:01;;;;;;;;;;;9.40;99.90;;;;;;6719288;88;20071;-80
2023/12/28 06:13:01;;;;;;;;;;;9.50;99.90;;;;;;6718949;88;20072;-80
2023/12/28 06:23:02;;;;;;;;;;;9.40;99.90;;;;;;6723086;88;20047;-81
2023/12/28 06:33:03;;;;;;;;;;;9.30;99.90;;;;;;6724941;88;20066;-82
2023/12/28 06:43:03;;;;;;;;;;;9.20;99.90;;;;;;6726275;88;20063;-81
2023/12/28 06:53:04;;;;;;;;;;;9.10;99.90;;;;;;6728256;88;20139;-81
2023/12/28 07:03:04;;;;;;;;;;;8.90;99.90;;;;;;6730602;88;20592;-81
2023/12/28 07:13:17;;;;;;;;;;;8.80;99.90;;;;;;6725704;88;20176;-79
2023/12/28 07:23:18;;;;;;;;;;;8.80;99.90;;;;;;6730571;88;20558;-79
2023/12/28 07:33:18;;;;;;;;;;;8.80;99.90;;;;;;6722363;88;20921;-78
2023/12/28 07:43:18;;;;;;;;;;;8.80;99.90;;;;;;6724490;88;20089;-81
2023/12/28 07:53:19;;;;;;;;;;;8.90;99.90;;;;;;6714122;88;20129;-81
2023/12/28 08:03:19;;;;;;;;;;;9.00;99.90;;;;;;6723701;88;20078;-81
2023/12/28 08:13:20;;;;;;;;;;;8.50;99.90;;;;;;6726389;88;20075;-82
2023/12/28 08:23:20;;;;;;;;;;;8.70;99.90;;;;;;6727341;88;20062;-81
2023/12/28 08:33:21;;;;;;;;;;;8.70;99.90;;;;;;6726680;88;20063;-81
2023/12/28 08:43:21;;;;;;;;;;;9.10;99.90;;;;;;6726832;88;20067;-81
2023/12/28 08:53:21;;;;;;;;;;;9.20;99.90;;;;;;6723978;88;20080;-81
2023/12/28 09:03:22;;;;;;;;;;;9.50;99.90;;;;;;6721286;88;20083;-81
2023/12/28 09:13:22;;;;;;;;;;;9.70;99.90;;;;;;6724038;88;20199;-81
2023/12/28 09:23:23;;;;;;;;;;;10.10;99.90;;;;;;6717743;88;20068;-81
2023/12/28 09:33:24;;;;;;;;;;;10.90;99.90;;;;;;6713053;88;20114;-79
2023/12/28 09:43:25;;;;;;;;;;;11.40;99.90;;;;;;6712081;88;20112;-79
2023/12/28 09:53:26;;;;;;;;;;;11.80;99.90;;;;;;6713909;88;20542;-78
2023/12/28 10:03:26;;;;;;;;;;;12.20;99.90;;;;;;6722028;88;20067;-80
2023/12/28 10:13:27;;;;;;;;;;;12.50;99.90;;;;;;6720006;88;20074;-80
2023/12/28 10:23:27;;;;;;;;;;;12.80;99.90;;;;;;6711014;88;20089;-80
2023/12/28 10:33:33;;;;;;;;;;;13.40;99.90;;;;;;6704913;88;20504;-80
2023/12/28 10:43:50;;;;;;;;;;;13.40;99.90;;;;;;6703386;88;20530;-80
2023/12/28 10:53:53;;;;;;;;;;;13.80;99.90;;;;;;6699086;88;20072;-80
2023/12/28 11:04:03;;;;;;;;;;;14.10;99.90;;;;;;6697619;88;20067;-80
2023/12/28 11:14:04;;;;;;;;;;;13.80;99.90;;;;;;6701885;88;20118;-80
2023/12/28 11:24:05;;;;;;;;;;;14.00;99.90;;;;;;6703964;88;20087;-81
2023/12/28 11:34:07;;;;;;;;;;;14.10;99.90;;;;;;6708267;88;20069;-80
2023/12/28 11:44:08;;;;;;;;;;;14.40;99.90;;;;;;6704953;88;20048;-79
2023/12/28 11:54:08;;;;;;;;;;;14.90;99.90;;;;;;6702245;88;20070;-80
2023/12/28 12:04:09;;;;;;;;;;;15.10;99.90;;;;;;6704803;88;20253;-79
2023/12/28 12:14:09;;;;;;;;;;;15.20;99.90;;;;;;6698689;88;20660;-79
2023/12/28 12:24:10;;;;;;;;;;;15.00;99.90;;;;;;6704136;88;20089;-79
2023/12/28 12:34:11;;;;;;;;;;;15.00;99.90;;;;;;6694247;88;20137;-78
2023/12/28 12:44:12;;;;;;;;;;;14.20;99.90;;;;;;6697221;88;20615;-79
2023/12/28 12:54:13;;;;;;;;;;;14.30;99.90;;;;;;6692689;88;20060;-80
2023/12/28 13:04:14;;;;;;;;;;;14.60;99.90;;;;;;6697667;88;20060;-78
2023/12/28 13:14:14;;;;;;;;;;;14.60;99.90;;;;;;6692014;88;20129;-78
2023/12/28 13:24:15;;;;;;;;;;;14.30;99.90;;;;;;6695069;88;20088;-77
2023/12/28 13:34:15;;;;;;;;;;;14.00;99.90;;;;;;6689794;88;20620;-78
2023/12/28 13:44:17;;;;;;;;;;;13.40;99.90;;;;;;6691627;88;20152;-78
2023/12/28 13:54:19;;;;;;;;;;;13.50;99.90;;;;;;6695947;88;20055;-80
2023/12/28 14:04:19;;;;;;;;;;;13.60;99.90;;;;;;6703595;88;20115;-79
2023/12/28 14:14:20;;;;;;;;;;;13.20;99.90;;;;;;6696417;88;20204;-77
2023/12/28 14:24:21;;;;;;;;;;;13.00;99.90;;;;;;6701497;88;20529;-80
2023/12/28 14:34:21;;;;;;;;;;;12.70;99.90;;;;;;6696660;88;20096;-77
2023/12/28 14:44:22;;;;;;;;;;;12.60;99.90;;;;;;6698149;88;20059;-78
2023/12/28 14:54:22;;;;;;;;;;;12.40;99.90;;;;;;6698981;88;20067;-78
2023/12/28 15:04:22;;;;;;;;;;;12.20;99.90;;;;;;6700784;88;20101;-78
2023/12/28 15:14:23;;;;;;;;;;;12.10;99.90;;;;;;6702087;88;20070;-79
2023/12/28 15:24:24;;;;;;;;;;;11.90;99.90;;;;;;6712246;88;20067;-80
2023/12/28 15:34:24;;;;;;;;;;;11.70;99.90;;;;;;6710638;88;20049;-80
2023/12/28 15:44:25;;;;;;;;;;;11.60;99.90;;;;;;6697126;88;20079;-80
2023/12/28 15:54:25;;;;;;;;;;;11.40;99.90;;;;;;6700673;88;20079;-81
2023/12/28 16:04:26;;;;;;;;;;;11.20;99.90;;;;;;6700436;88;20113;-82
2023/12/28 16:14:26;;;;;;;;;;;11.20;99.90;;;;;;6702127;88;20133;-81
2023/12/28 16:24:27;;;;;;;;;;;11.00;99.90;;;;;;6707449;88;20062;-81
2023/12/28 16:34:31;;;;;;;;;;;11.00;99.90;;;;;;6698546;88;20895;-81
2023/12/28 16:44:31;;;;;;;;;;;10.80;99.90;;;;;;6699637;88;20107;-81
2023/12/28 16:54:31;;;;;;;;;;;10.80;99.90;;;;;;6699885;89;20063;-82
2023/12/28 17:04:32;;;;;;;;;;;10.90;99.90;;;;;;6706204;88;20059;-81
2023/12/28 17:14:32;;;;;;;;;;;10.80;99.90;;;;;;6699224;88;20360;-81
2023/12/28 17:24:38;;;;;;;;;;;10.70;99.90;;;;;;6706942;88;20089;-81
2023/12/28 17:34:38;;;;;;;;;;;10.70;99.90;;;;;;6724339;88;20051;-82
2023/12/28 17:44:42;;;;;;;;;;;10.60;99.90;;;;;;6733414;88;20203;-81
2023/12/28 17:54:42;;;;;;;;;;;10.40;99.90;;;;;;6735095;88;20031;-82
2023/12/28 18:04:44;;;;;;;;;;;10.50;99.90;;;;;;6737736;88;20050;-81
2023/12/28 18:14:44;;;;;;;;;;;10.40;99.90;;;;;;6713441;88;20058;-81
2023/12/28 18:24:45;;;;;;;;;;;10.20;99.90;;;;;;6714831;88;20097;-80
2023/12/28 18:34:46;;;;;;;;;;;10.00;99.90;;;;;;6716019;88;20089;-80
2023/12/28 18:44:46;;;;;;;;;;;10.00;99.90;;;;;;6723193;88;20062;-81
2023/12/28 18:54:47;;;;;;;;;;;10.00;99.90;;;;;;6729081;88;20105;-80
2023/12/28 19:04:47;;;;;;;;;;;10.00;99.90;;;;;;6714229;88;20200;-81
2023/12/28 19:14:48;;;;;;;;;;;10.00;99.90;;;;;;6711877;88;20899;-80
2023/12/28 19:24:48;;;;;;;;;;;10.00;99.90;;;;;;6712290;88;20076;-80
2023/12/28 19:34:49;;;;;;;;;;;9.90;99.90;;;;;;6712129;88;20062;-80
2023/12/28 19:44:49;;;;;;;;;;;9.80;99.90;;;;;;6711230;88;20070;-80
2023/12/28 19:54:51;;;;;;;;;;;9.90;99.90;;;;;;6711188;88;20516;-80
2023/12/28 20:04:55;;;;;;;;;;;9.80;99.90;;;;;;6712235;88;20078;-81
2023/12/28 20:14:55;;;;;;;;;;;9.70;99.90;;;;;;6712847;88;20091;-81
2023/12/28 20:24:56;;;;;;;;;;;9.70;99.90;;;;;;6713123;88;20204;-81
2023/12/28 20:34:57;;;;;;;;;;;9.80;99.90;;;;;;6713410;88;20084;-82
2023/12/28 20:44:57;;;;;;;;;;;9.80;99.90;;;;;;6719069;88;20541;-80
2023/12/28 20:54:58;;;;;;;;;;;9.80;99.90;;;;;;6726789;88;20055;-81
2023/12/28 21:04:58;;;;;;;;;;;9.70;99.90;;;;;;6713373;88;20697;-82
2023/12/28 21:14:58;;;;;;;;;;;9.70;99.90;;;;;;6715716;88;20509;-80
2023/12/28 21:24:59;;;;;;;;;;;9.50;99.90;;;;;;6716664;88;20072;-82
2023/12/28 21:34:59;;;;;;;;;;;9.60;99.90;;;;;;6709063;88;20059;-81
2023/12/28 21:45:00;;;;;;;;;;;9.80;99.90;;;;;;6713725;88;20071;-80
2023/12/28 21:55:01;;;;;;;;;;;9.80;99.90;;;;;;6717308;88;20066;-81
2023/12/28 22:05:01;;;;;;;;;;;10.10;99.90;;;;;;6712851;88;20069;-81
2023/12/28 22:15:02;;;;;;;;;;;10.10;99.90;;;;;;6711955;88;20178;-81
2023/12/28 22:25:02;;;;;;;;;;;10.00;99.90;;;;;;6722539;88;20055;-82
2023/12/28 22:35:04;;;;;;;;;;;10.10;99.90;;;;;;6733168;88;20053;-82
2023/12/28 22:45:05;;;;;;;;;;;9.90;99.90;;;;;;6730107;88;20721;-80
2023/12/28 22:55:05;;;;;;;;;;;9.90;99.90;;;;;;6729550;88;20090;-82
2023/12/28 23:05:06;;;;;;;;;;;9.80;99.90;;;;;;6723520;88;20090;-82
2023/12/28 23:26:08;;;;;;;;;;;9.70;99.90;;;;;;6769173;88;20014;-87
2023/12/28 23:36:11;;;;;;;;;;;9.80;99.90;;;;;;6682261;88;20065;-86
2023/12/28 23:56:18;;;;;;;;;;;9.90;99.90;;;;;;6789141;88;20126;-86
